Time;durP1;ratioP1;P1;durP2;ratioP2;P2;SDS_P1;SDS_P2;PMS_P1;PMS_P2;Temp;Humidity;BMP_temperature;BMP_pressure;BME280_temperature;BME280_humidity;BME280_pressure;Samples;Min_cycle;Max_cycle;Signal;HPM_P1;HPM_P2
2022/03/07 00:00:27;;;;;;;11.68;6.35;;;;;;;0.42;81.57;102913.66;5046229;28;20068;-56
2022/03/07 00:02:54;;;;;;;10.30;5.53;;;;;;;0.37;81.25;102916.91;5048123;28;20049;-55
2022/03/07 00:05:19;;;;;;;9.27;5.40;;;;;;;0.29;80.99;102909.63;5047498;28;20155;-57
2022/03/07 00:07:44;;;;;;;8.10;5.63;;;;;;;0.20;81.07;102911.03;5047600;28;20734;-55
2022/03/07 00:10:10;;;;;;;8.82;5.45;;;;;;;0.17;81.40;102929.03;5048144;28;20039;-56
2022/03/07 00:12:35;;;;;;;11.15;5.53;;;;;;;0.09;81.62;102926.09;5048537;28;20044;-52
2022/03/07 00:15:01;;;;;;;8.98;4.93;;;;;;;0.05;81.95;102924.19;5048124;28;20052;-56
2022/03/07 00:17:26;;;;;;;7.15;5.38;;;;;;;-0.01;81.96;102924.81;5053391;28;20033;-54
2022/03/07 00:19:51;;;;;;;8.80;6.18;;;;;;;-0.09;81.99;102926.19;5047289;28;20104;-55
2022/03/07 00:22:17;;;;;;;12.13;6.43;;;;;;;-0.10;82.10;102928.69;5047073;28;20163;-54
2022/03/07 00:24:42;;;;;;;9.27;5.63;;;;;;;-0.15;82.19;102926.78;5047024;28;20078;-54
2022/03/07 00:27:07;;;;;;;10.70;6.00;;;;;;;-0.19;82.42;102926.59;5047116;28;20098;-55
2022/03/07 00:29:33;;;;;;;7.25;5.68;;;;;;;-0.21;82.47;102926.50;5047839;28;20151;-54
2022/03/07 00:31:58;;;;;;;10.88;6.75;;;;;;;-0.26;82.60;102931.53;5048116;28;20071;-55
2022/03/07 00:34:23;;;;;;;9.73;6.45;;;;;;;-0.31;82.67;102935.59;5046134;28;20025;-57
2022/03/07 00:36:49;;;;;;;10.88;6.90;;;;;;;-0.32;82.45;102933.81;5047177;28;20490;-55
2022/03/07 00:39:14;;;;;;;12.20;6.40;;;;;;;-0.34;82.25;102931.97;5045777;28;20035;-56
2022/03/07 00:41:39;;;;;;;11.73;6.93;;;;;;;-0.33;82.32;102941.53;5047809;28;20025;-54
2022/03/07 00:44:05;;;;;;;10.77;6.28;;;;;;;-0.33;82.51;102937.22;5047668;28;20033;-56
2022/03/07 00:46:30;;;;;;;7.90;5.65;;;;;;;-0.39;82.45;102937.81;5047877;28;20025;-56
2022/03/07 00:48:56;;;;;;;10.30;5.70;;;;;;;-0.43;82.26;102932.44;5046547;28;20554;-55
2022/03/07 00:51:24;;;;;;;8.23;5.95;;;;;;;-0.46;82.58;102932.28;5044925;28;20136;-53
2022/03/07 00:53:49;;;;;;;10.82;6.55;;;;;;;-0.47;82.93;102938.28;5046885;28;20456;-54
2022/03/07 00:56:14;;;;;;;11.10;6.63;;;;;;;-0.50;82.62;102939.03;5047886;28;20041;-53
2022/03/07 00:58:40;;;;;;;8.50;5.53;;;;;;;-0.55;82.66;102941.41;5047598;28;20507;-56
2022/03/07 01:01:05;;;;;;;13.30;6.50;;;;;;;-0.61;82.53;102941.13;5047003;28;20468;-54
2022/03/07 01:03:30;;;;;;;10.05;6.20;;;;;;;-0.64;82.36;102946.16;5047136;28;20053;-53
2022/03/07 01:05:56;;;;;;;7.90;5.80;;;;;;;-0.70;82.63;102941.59;5046032;28;20025;-54
2022/03/07 01:08:22;;;;;;;8.90;5.43;;;;;;;-0.74;82.65;102938.78;5046404;28;20039;-55
2022/03/07 01:10:48;;;;;;;9.40;5.78;;;;;;;-0.81;82.80;102946.25;5046637;28;20028;-55
2022/03/07 01:13:13;;;;;;;8.35;6.13;;;;;;;-0.83;83.15;102945.31;5047109;28;20063;-54
2022/03/07 01:15:38;;;;;;;9.07;6.53;;;;;;;-0.83;83.17;102940.13;5046723;28;20467;-57
2022/03/07 01:18:04;;;;;;;9.77;6.40;;;;;;;-0.85;83.07;102943.47;5047453;28;20029;-54
2022/03/07 01:20:29;;;;;;;15.43;6.88;;;;;;;-0.85;83.31;102944.34;5046115;28;20480;-55
2022/03/07 01:22:55;;;;;;;9.25;7.10;;;;;;;-0.87;83.76;102943.41;5045631;28;20708;-56
2022/03/07 01:25:20;;;;;;;8.55;6.70;;;;;;;-0.92;83.42;102940.59;5045800;28;20024;-57
2022/03/07 01:27:45;;;;;;;16.17;7.00;;;;;;;-0.97;83.70;102944.63;5046243;28;20021;-57
2022/03/07 01:30:11;;;;;;;9.30;6.43;;;;;;;-1.02;83.84;102947.00;5045822;28;20025;-57
2022/03/07 01:32:36;;;;;;;12.23;7.40;;;;;;;-1.05;84.23;102941.66;5047211;28;20021;-55
2022/03/07 01:35:03;;;;;;;11.07;7.03;;;;;;;-1.10;84.14;102944.84;5046749;28;20388;-56
2022/03/07 01:37:28;;;;;;;8.52;6.40;;;;;;;-1.11;84.49;102949.16;5050618;28;20039;-56
2022/03/07 01:39:54;;;;;;;13.52;7.18;;;;;;;-1.16;84.59;102941.16;5046150;28;20024;-52
2022/03/07 01:42:19;;;;;;;13.68;7.35;;;;;;;-1.21;84.28;102946.94;5045349;28;20033;-56
2022/03/07 01:44:44;;;;;;;12.15;6.55;;;;;;;-1.24;84.55;102944.19;5045552;28;20810;-56
2022/03/07 01:47:10;;;;;;;15.73;7.32;;;;;;;-1.26;84.69;102944.13;5046161;28;20056;-59
2022/03/07 01:49:35;;;;;;;9.98;6.38;;;;;;;-1.30;84.61;102948.25;5046856;28;20032;-55
2022/03/07 01:52:01;;;;;;;15.05;7.72;;;;;;;-1.34;84.71;102950.59;5045196;28;20063;-54
2022/03/07 01:54:26;;;;;;;15.80;7.10;;;;;;;-1.36;84.73;102945.34;5045373;28;20726;-56
2022/03/07 01:56:53;;;;;;;11.77;7.88;;;;;;;-1.35;85.07;102949.72;5045264;28;20021;-55
2022/03/07 01:59:25;;;;;;;13.50;8.57;;;;;;;-1.37;85.23;102951.34;5045522;28;20021;-55
2022/03/07 02:01:51;;;;;;;10.82;7.57;;;;;;;-1.39;85.38;102940.00;5046522;28;20090;-58
2022/03/07 02:04:16;;;;;;;12.45;6.85;;;;;;;-1.37;84.93;102941.00;5046405;28;20033;-57
2022/03/07 02:06:42;;;;;;;10.98;7.38;;;;;;;-1.35;84.84;102944.56;5061683;22;20117;-56
2022/03/07 02:09:08;;;;;;;13.45;8.02;;;;;;;-1.29;85.23;102942.25;5055477;28;20021;-56
2022/03/07 02:11:35;;;;;;;15.25;8.32;;;;;;;-1.18;85.72;102931.53;5046012;28;20079;-58
2022/03/07 02:14:30;;;;;;;20.23;8.40;;;;;;;-1.02;85.75;102928.03;5045842;28;20029;-51
2022/03/07 02:16:56;;;;;;;17.58;9.35;;;;;;;-0.90;85.68;102931.16;5025460;28;20478;-55
2022/03/07 02:19:21;;;;;;;19.85;8.48;;;;;;;-0.80;85.97;102929.94;5043267;28;20079;-56
2022/03/07 02:21:48;;;;;;;18.98;8.65;;;;;;;-0.71;85.59;102928.56;5042655;28;20025;-55
2022/03/07 02:24:16;;;;;;;16.70;8.73;;;;;;;-0.66;85.54;102927.97;5045066;28;20386;-56
2022/03/07 02:26:41;;;;;;;14.40;8.73;;;;;;;-0.59;85.15;102926.56;5040665;28;20025;-57
2022/03/07 02:29:08;;;;;;;14.77;8.68;;;;;;;-0.54;85.09;102922.47;5041519;28;20024;-57
2022/03/07 02:31:34;;;;;;;12.00;8.65;;;;;;;-0.47;84.96;102917.56;5048404;28;20034;-53
2022/03/07 02:34:00;;;;;;;11.90;7.28;;;;;;;-0.41;84.52;102917.84;5043978;28;20068;-53
2022/03/07 02:36:25;;;;;;;12.52;7.70;;;;;;;-0.37;84.25;102924.06;5043486;28;20996;-54
2022/03/07 02:38:51;;;;;;;16.52;8.73;;;;;;;-0.30;84.16;102916.63;5035836;28;20029;-56
2022/03/07 02:41:16;;;;;;;15.70;9.90;;;;;;;-0.17;83.87;102922.38;5041311;28;20070;-53
2022/03/07 02:43:41;;;;;;;16.95;7.82;;;;;;;-0.11;83.63;102920.06;5043446;28;20103;-56
2022/03/07 02:46:07;;;;;;;13.60;9.05;;;;;;;-0.09;83.20;102921.00;5044459;28;20147;-54
2022/03/07 02:48:32;;;;;;;12.77;7.88;;;;;;;0.02;83.06;102923.16;5042474;28;20082;-56
2022/03/07 02:50:58;;;;;;;13.90;9.57;;;;;;;0.07;82.44;102919.09;5046371;28;20025;-55
2022/03/07 02:53:24;;;;;;;12.02;7.05;;;;;;;0.09;82.34;102914.88;5028084;28;20033;-56
2022/03/07 02:55:49;;;;;;;12.90;7.70;;;;;;;0.12;82.16;102907.22;5023401;28;20629;-56
2022/03/07 02:58:15;;;;;;;12.90;8.02;;;;;;;0.11;81.87;102908.91;5030926;28;20108;-54
2022/03/07 03:00:40;;;;;;;13.82;7.10;;;;;;;0.12;82.10;102921.06;5036978;28;20139;-54
2022/03/07 03:03:06;;;;;;;16.00;8.27;;;;;;;0.14;81.87;102910.75;5045746;28;20252;-52
2022/03/07 03:05:31;;;;;;;11.10;6.65;;;;;;;0.23;81.68;102908.56;5043937;28;20064;-56
2022/03/07 03:07:57;;;;;;;11.85;7.78;;;;;;;0.26;81.25;102910.38;5033450;28;20049;-53
2022/03/07 03:10:22;;;;;;;11.80;7.43;;;;;;;0.25;81.02;102900.84;5038733;28;20378;-52
2022/03/07 03:12:48;;;;;;;9.80;7.28;;;;;;;0.23;81.24;102908.56;5037915;28;20503;-55
2022/03/07 03:15:14;;;;;;;12.77;8.55;;;;;;;0.25;81.45;102908.63;5021523;28;20029;-54
2022/03/07 03:17:41;;;;;;;15.32;8.38;;;;;;;0.20;81.62;102913.63;5024141;28;20092;-57
2022/03/07 03:20:10;;;;;;;11.32;7.55;;;;;;;0.23;81.46;102908.56;5035740;28;20033;-54
2022/03/07 03:22:36;;;;;;;13.23;8.82;;;;;;;0.24;81.63;102907.72;5024803;28;20022;-56
2022/03/07 03:25:01;;;;;;;11.25;7.55;;;;;;;0.29;81.67;102907.03;5024990;28;20044;-55
2022/03/07 03:27:26;;;;;;;9.57;7.03;;;;;;;0.34;81.44;102910.72;5030775;28;20044;-54
2022/03/07 03:29:52;;;;;;;13.43;8.35;;;;;;;0.34;81.22;102901.25;5037115;28;20448;-56
2022/03/07 03:32:17;;;;;;;13.18;7.40;;;;;;;0.39;81.14;102901.41;5034744;28;20033;-54
2022/03/07 03:34:42;;;;;;;11.25;7.00;;;;;;;0.44;80.73;102907.69;5025497;28;20476;-54
2022/03/07 03:37:08;;;;;;;10.40;6.70;;;;;;;0.47;80.38;102907.81;5024774;28;20434;-51
2022/03/07 03:39:33;;;;;;;13.82;7.45;;;;;;;0.37;80.71;102901.34;5025351;28;20037;-52
2022/03/07 03:41:59;;;;;;;14.07;7.80;;;;;;;0.41;80.88;102901.47;5035539;28;20025;-52
2022/03/07 03:44:24;;;;;;;13.25;6.90;;;;;;;0.35;80.97;102900.41;5043531;28;20021;-56
2022/03/07 03:46:49;;;;;;;12.07;7.88;;;;;;;0.39;81.11;102903.13;5043371;28;20021;-55
2022/03/07 03:49:14;;;;;;;12.35;8.32;;;;;;;0.33;81.52;102896.84;5044253;28;20021;-56
2022/03/07 03:51:40;;;;;;;12.15;8.65;;;;;;;0.34;81.03;102889.97;5043781;28;20159;-52
2022/03/07 03:54:06;;;;;;;13.75;8.18;;;;;;;0.35;81.03;102892.63;5044400;28;20029;-54
2022/03/07 03:56:32;;;;;;;11.85;7.10;;;;;;;0.25;81.19;102886.16;5034118;28;20013;-55
2022/03/07 03:58:57;;;;;;;13.27;7.13;;;;;;;0.21;81.29;102897.22;5027656;28;20033;-57
2022/03/07 04:01:22;;;;;;;10.50;7.40;;;;;;;0.12;81.43;102889.06;5027380;28;20028;-53
2022/03/07 04:03:48;;;;;;;14.38;8.38;;;;;;;0.05;81.69;102902.56;5033168;28;20044;-54
2022/03/07 04:06:13;;;;;;;11.68;8.50;;;;;;;-0.04;82.39;102898.78;5038601;28;20124;-52
2022/03/07 04:08:43;;;;;;;10.43;7.47;;;;;;;-0.05;82.55;102901.28;5048439;28;20041;-55
2022/03/07 04:11:09;;;;;;;10.75;8.02;;;;;;;-0.04;82.77;102909.13;5050510;28;20043;-54
2022/03/07 04:13:35;;;;;;;15.18;8.32;;;;;;;-0.03;82.88;102910.91;5067820;28;20470;-54
2022/03/07 04:16:00;;;;;;;10.57;7.90;;;;;;;0.01;82.85;102908.44;5032630;28;20513;-54
2022/03/07 04:18:25;;;;;;;12.50;8.50;;;;;;;0.00;82.60;102905.00;5045658;28;20473;-56
2022/03/07 04:20:51;;;;;;;15.20;9.30;;;;;;;0.02;82.80;102905.91;5036771;28;20014;-56
2022/03/07 04:23:21;;;;;;;15.48;8.82;;;;;;;0.02;82.72;102894.66;5038996;28;20033;-55
2022/03/07 04:25:48;;;;;;;13.60;8.23;;;;;;;0.02;82.47;102902.44;5030379;28;20032;-54
2022/03/07 04:28:13;;;;;;;13.55;9.07;;;;;;;-0.03;82.32;102903.13;5048200;28;20035;-56
2022/03/07 04:30:40;;;;;;;16.27;9.02;;;;;;;-0.09;82.95;102896.81;5048083;28;20025;-55
2022/03/07 04:33:05;;;;;;;10.82;8.10;;;;;;;-0.13;83.00;102900.94;5046822;28;20086;-55
2022/03/07 04:35:30;;;;;;;14.25;8.40;;;;;;;-0.10;83.20;102900.19;5047075;28;20414;-55
2022/03/07 04:37:56;;;;;;;10.73;8.18;;;;;;;-0.14;83.23;102899.19;5042722;28;20444;-57
2022/03/07 04:40:21;;;;;;;16.30;9.30;;;;;;;-0.17;83.54;102901.63;5035615;28;20344;-56
2022/03/07 04:42:47;;;;;;;12.43;8.32;;;;;;;-0.19;84.03;102905.84;5045084;28;20417;-53
2022/03/07 04:45:13;;;;;;;16.40;10.00;;;;;;;-0.24;83.72;102907.38;5046154;28;20124;-53
2022/03/07 04:47:39;;;;;;;14.23;9.45;;;;;;;-0.30;83.86;102901.09;5047043;28;20033;-52
2022/03/07 04:50:06;;;;;;;20.00;8.55;;;;;;;-0.32;83.72;102905.31;5039781;28;20025;-56
2022/03/07 04:52:32;;;;;;;14.30;8.02;;;;;;;-0.38;83.77;102902.47;5027824;28;20475;-55
2022/03/07 04:54:57;;;;;;;14.23;8.50;;;;;;;-0.49;83.67;102899.38;5026641;28;20033;-54
2022/03/07 04:57:22;;;;;;;14.73;9.35;;;;;;;-0.58;83.74;102896.34;5045892;28;20021;-55
2022/03/07 04:59:48;;;;;;;15.63;8.98;;;;;;;-0.70;83.97;102902.75;5038424;28;20420;-57
2022/03/07 05:02:13;;;;;;;10.30;7.95;;;;;;;-0.80;83.69;102898.84;5026508;28;20033;-53
2022/03/07 05:04:40;;;;;;;13.30;9.40;;;;;;;-0.83;84.24;102893.53;5026211;28;20080;-54
2022/03/07 05:07:05;;;;;;;12.93;8.32;;;;;;;-0.93;84.33;102891.34;5027094;28;20503;-55
2022/03/07 05:09:31;;;;;;;11.65;8.23;;;;;;;-0.98;84.66;102887.63;5036401;28;20289;-56
2022/03/07 05:11:57;;;;;;;15.85;9.57;;;;;;;-1.06;85.00;102889.84;5039216;28;20021;-55
2022/03/07 05:14:22;;;;;;;20.13;10.65;;;;;;;-1.03;85.09;102896.06;5044522;28;20072;-56
2022/03/07 05:16:48;;;;;;;16.80;9.95;;;;;;;-1.03;85.31;102897.75;5041661;28;20017;-56
2022/03/07 05:19:13;;;;;;;18.65;9.82;;;;;;;-1.05;85.53;102896.81;5058814;28;20104;-55
2022/03/07 05:21:38;;;;;;;17.52;10.10;;;;;;;-1.04;85.35;102908.94;5046958;28;20071;-56
2022/03/07 05:24:04;;;;;;;20.15;10.02;;;;;;;-1.05;85.71;102899.41;5045230;28;20055;-58
2022/03/07 05:26:30;;;;;;;14.57;10.25;;;;;;;-0.97;85.82;102899.78;5043393;28;20544;-54
2022/03/07 05:28:55;;;;;;;19.20;10.75;;;;;;;-0.99;85.85;102906.56;5053694;28;20513;-53
2022/03/07 05:31:21;;;;;;;22.70;11.57;;;;;;;-1.02;85.81;102908.19;5046505;28;20116;-52
2022/03/07 05:33:46;;;;;;;15.38;10.55;;;;;;;-0.98;85.55;102903.16;5045974;28;20345;-51
2022/03/07 05:36:12;;;;;;;18.33;10.13;;;;;;;-0.98;85.69;102900.56;5039827;28;20398;-56
2022/03/07 05:38:38;;;;;;;21.70;11.38;;;;;;;-0.96;85.57;102902.41;5039712;28;20083;-55
2022/03/07 05:41:04;;;;;;;20.23;10.82;;;;;;;-0.98;85.39;102903.16;5044120;28;20543;-56
2022/03/07 05:43:29;;;;;;;16.98;10.95;;;;;;;-0.99;85.33;102906.56;5043636;28;20103;-57
2022/03/07 05:45:55;;;;;;;17.67;10.65;;;;;;;-1.02;85.54;102913.34;5046152;28;20110;-54
2022/03/07 05:48:20;;;;;;;18.67;10.40;;;;;;;-1.04;85.53;102908.94;5045534;28;20100;-53
2022/03/07 05:50:45;;;;;;;19.52;10.77;;;;;;;-1.03;85.56;102914.19;5043756;28;20025;-57
2022/03/07 05:53:11;;;;;;;16.42;10.70;;;;;;;-1.02;85.50;102913.34;5045856;28;20075;-57
2022/03/07 05:55:36;;;;;;;11.55;9.18;;;;;;;-1.08;85.35;102920.81;5046162;28;20057;-56
2022/03/07 05:58:01;;;;;;;18.75;9.88;;;;;;;-1.13;85.55;102924.91;5045185;28;20118;-55
2022/03/07 06:00:28;;;;;;;15.93;9.82;;;;;;;-1.08;85.69;102928.59;5045348;28;20090;-57
2022/03/07 06:02:53;;;;;;;18.27;9.63;;;;;;;-1.08;85.47;102928.59;5044640;28;20064;-53
2022/03/07 06:05:19;;;;;;;15.55;9.80;;;;;;;-1.10;85.50;102930.22;5044768;28;20539;-57
2022/03/07 06:07:45;;;;;;;19.33;10.93;;;;;;;-1.11;85.26;102936.22;5047397;28;20045;-55
2022/03/07 06:10:10;;;;;;;17.63;11.27;;;;;;;-1.13;85.46;102950.78;5045731;28;20029;-56
2022/03/07 06:12:36;;;;;;;17.70;10.63;;;;;;;-1.15;85.50;102936.88;5037653;28;20018;-55
2022/03/07 06:15:03;;;;;;;20.30;10.98;;;;;;;-1.16;85.52;102945.44;5024738;28;20107;-56
2022/03/07 06:17:33;;;;;;;24.48;11.98;;;;;;;-1.16;85.80;102945.44;5045326;28;20479;-57
2022/03/07 06:19:59;;;;;;;21.98;10.82;;;;;;;-1.18;85.76;102941.88;5066030;28;20501;-54
2022/03/07 06:22:24;;;;;;;17.25;11.80;;;;;;;-1.21;86.36;102942.63;5063943;28;20060;-54
2022/03/07 06:24:50;;;;;;;23.63;11.85;;;;;;;-1.21;86.42;102941.75;5063807;28;20501;-53
2022/03/07 06:27:15;;;;;;;21.33;11.82;;;;;;;-1.20;86.14;102943.53;5044359;28;20025;-56
2022/03/07 06:29:40;;;;;;;24.02;11.85;;;;;;;-1.18;86.00;102941.88;5039104;28;20395;-52
2022/03/07 06:32:06;;;;;;;17.05;11.20;;;;;;;-1.16;86.06;102948.94;5039865;28;20022;-56
2022/03/07 06:34:33;;;;;;;18.10;11.15;;;;;;;-1.15;85.82;102952.38;5035984;28;20072;-58
2022/03/07 06:36:59;;;;;;;21.27;11.93;;;;;;;-1.09;85.69;102949.25;5037261;28;20032;-56
2022/03/07 06:39:26;;;;;;;19.92;11.77;;;;;;;-1.11;85.61;102953.44;5027613;28;20025;-56
2022/03/07 06:41:52;;;;;;;21.73;12.52;;;;;;;-1.09;85.66;102947.53;5024246;28;20060;-53
2022/03/07 06:44:18;;;;;;;15.55;10.57;;;;;;;-1.10;85.50;102945.75;5023849;28;20029;-55
2022/03/07 06:46:43;;;;;;;20.80;11.73;;;;;;;-1.11;85.56;102954.34;5038876;28;20040;-57
2022/03/07 06:49:09;;;;;;;20.00;11.77;;;;;;;-1.08;85.51;102944.09;5043106;28;20017;-55
2022/03/07 06:51:34;;;;;;;14.80;9.77;;;;;;;-1.12;85.42;102955.13;5044475;28;20804;-55
2022/03/07 06:53:59;;;;;;;21.30;11.23;;;;;;;-1.11;85.39;102954.34;5044809;28;20021;-54
2022/03/07 06:56:24;;;;;;;16.98;11.18;;;;;;;-1.10;85.80;102956.09;5042627;28;20090;-56
2022/03/07 06:58:50;;;;;;;19.77;11.00;;;;;;;-1.09;85.48;102952.69;5036484;28;20078;-58
2022/03/07 07:01:15;;;;;;;23.23;12.20;;;;;;;-1.04;85.07;102948.66;5029279;28;20387;-53
2022/03/07 07:03:40;;;;;;;22.27;10.52;;;;;;;-1.05;85.38;102952.03;5043085;28;20394;-56
2022/03/07 07:06:06;;;;;;;16.85;11.45;;;;;;;-1.03;85.18;102960.75;5043631;28;20045;-53
2022/03/07 07:08:31;;;;;;;19.85;11.05;;;;;;;-0.95;84.77;102953.38;5033847;28;20036;-57
2022/03/07 07:10:56;;;;;;;24.75;12.18;;;;;;;-0.98;85.30;102965.28;5024707;28;20021;-53
2022/03/07 07:13:22;;;;;;;18.40;11.15;;;;;;;-0.92;84.82;102956.13;5023387;28;20128;-56
2022/03/07 07:15:54;;;;;;;17.77;11.30;;;;;;;-0.82;84.64;102964.28;5025162;28;20061;-55
2022/03/07 07:18:20;;;;;;;17.25;10.70;;;;;;;-0.72;84.10;102963.06;5033270;28;20482;-56
2022/03/07 07:20:45;;;;;;;21.02;10.30;;;;;;;-0.74;84.04;102962.09;5056582;28;20028;-57
2022/03/07 07:23:10;;;;;;;13.38;9.27;;;;;;;-0.70;83.99;102961.41;5043067;28;20060;-55
2022/03/07 07:25:36;;;;;;;17.05;10.77;;;;;;;-0.65;83.82;102963.44;5044949;28;20079;-57
2022/03/07 07:28:02;;;;;;;18.15;11.00;;;;;;;-0.49;83.43;102965.84;5048900;28;20020;-52
2022/03/07 07:30:27;;;;;;;18.60;10.82;;;;;;;-0.35;82.50;102972.56;5052891;28;20040;-53
2022/03/07 07:32:52;;;;;;;18.40;10.38;;;;;;;-0.35;82.20;102963.88;5054548;28;20017;-55
2022/03/07 07:35:18;;;;;;;14.98;9.63;;;;;;;-0.31;82.17;102969.28;5054165;28;20025;-55
2022/03/07 07:37:43;;;;;;;16.40;9.60;;;;;;;-0.26;82.18;102970.38;5054973;28;20108;-56
2022/03/07 07:40:10;;;;;;;31.60;11.30;;;;;;;-0.14;82.02;102964.88;5051380;28;20570;-59
2022/03/07 07:42:35;;;;;;;16.27;10.80;;;;;;;-0.05;81.18;102968.69;5036711;28;20029;-56
2022/03/07 07:45:00;;;;;;;18.60;10.65;;;;;;;-0.01;81.10;102973.19;5028149;28;20025;-53
2022/03/07 07:47:26;;;;;;;16.33;9.73;;;;;;;0.09;80.54;102971.91;5041627;28;20396;-50
2022/03/07 07:49:51;;;;;;;15.38;8.98;;;;;;;0.12;80.30;102966.84;5039470;28;20566;-55
2022/03/07 07:52:16;;;;;;;18.63;10.13;;;;;;;0.15;79.94;102972.16;5036919;28;20090;-56
2022/03/07 07:54:42;;;;;;;15.30;10.02;;;;;;;0.19;79.47;102971.50;5028353;28;20053;-55
2022/03/07 07:57:07;;;;;;;14.50;9.25;;;;;;;0.23;79.39;102975.97;5033822;28;20096;-60
2022/03/07 07:59:33;;;;;;;17.50;9.55;;;;;;;0.31;78.96;102973.72;5050412;28;20025;-55
2022/03/07 08:01:58;;;;;;;15.13;10.13;;;;;;;0.45;78.32;102966.53;5057026;28;20029;-55
2022/03/07 08:04:24;;;;;;;12.52;9.00;;;;;;;0.58;77.63;102972.25;5056041;28;20021;-54
2022/03/07 08:06:49;;;;;;;17.42;10.57;;;;;;;0.55;77.42;102973.00;5052381;28;20037;-55
2022/03/07 08:09:15;;;;;;;13.20;9.00;;;;;;;0.63;77.51;102970.72;5058330;28;20020;-56
2022/03/07 08:11:40;;;;;;;15.63;9.57;;;;;;;0.81;77.11;102980.13;5054652;28;20021;-58
2022/03/07 08:14:06;;;;;;;13.18;8.93;;;;;;;0.85;76.59;102967.28;5055448;28;20458;-57
2022/03/07 08:16:31;;;;;;;12.93;8.90;;;;;;;0.95;75.71;102973.78;5057705;28;20024;-58
2022/03/07 08:18:57;;;;;;;13.00;8.48;;;;;;;1.09;75.57;102970.84;5055907;28;21087;-54
2022/03/07 08:21:25;;;;;;;12.65;8.68;;;;;;;1.21;74.73;102973.91;5050761;28;20483;-55
2022/03/07 08:23:54;;;;;;;11.35;8.35;;;;;;;1.24;74.40;102979.22;5054541;28;20089;-56
2022/03/07 08:26:19;;;;;;;11.02;8.13;;;;;;;1.36;73.64;102973.63;5058256;28;20395;-56
2022/03/07 08:28:45;;;;;;;14.77;8.75;;;;;;;1.49;72.67;102977.63;5054833;28;20051;-54
2022/03/07 08:31:10;;;;;;;11.32;8.45;;;;;;;1.59;71.72;102973.66;5057293;28;20063;-56
2022/03/07 08:33:35;;;;;;;11.77;8.25;;;;;;;1.61;71.57;102973.72;5057775;28;20033;-56
2022/03/07 08:36:01;;;;;;;11.43;8.10;;;;;;;1.64;71.36;102976.41;5048141;28;20029;-55
2022/03/07 08:38:27;;;;;;;11.07;8.40;;;;;;;1.64;70.61;102984.22;5057825;28;20054;-56
2022/03/07 08:40:53;;;;;;;11.00;7.82;;;;;;;1.81;70.33;102977.06;5053186;28;20021;-56
2022/03/07 08:43:19;;;;;;;13.65;8.15;;;;;;;1.91;70.19;102980.00;5048317;28;20039;-56
2022/03/07 08:45:44;;;;;;;11.55;7.25;;;;;;;1.93;69.13;102983.53;5054118;28;20108;-53
2022/03/07 08:48:09;;;;;;;11.77;7.47;;;;;;;1.94;69.19;102981.00;5057712;28;20040;-58
2022/03/07 08:50:35;;;;;;;13.93;7.47;;;;;;;2.04;68.86;102981.34;5056482;28;20063;-56
2022/03/07 08:53:00;;;;;;;12.15;6.95;;;;;;;2.11;68.42;102976.41;5048270;28;20021;-56
2022/03/07 08:55:25;;;;;;;13.85;7.03;;;;;;;2.21;67.23;102985.44;5054589;28;20440;-58
2022/03/07 08:57:51;;;;;;;12.05;7.43;;;;;;;2.23;67.38;102985.50;5057674;28;20055;-55
2022/03/07 09:00:17;;;;;;;10.15;7.43;;;;;;;2.32;66.75;102979.72;5046212;28;20049;-56
2022/03/07 09:02:42;;;;;;;10.70;6.68;;;;;;;2.43;66.58;102980.09;5053532;28;20036;-54
2022/03/07 09:05:08;;;;;;;11.45;7.82;;;;;;;2.43;65.56;102980.09;5055236;28;20078;-56
2022/03/07 09:07:34;;;;;;;8.40;6.60;;;;;;;2.49;65.70;102973.38;5064557;28;20060;-54
2022/03/07 09:09:59;;;;;;;9.48;7.22;;;;;;;2.59;65.38;102973.72;5066478;28;20032;-55
2022/03/07 09:12:27;;;;;;;11.32;6.38;;;;;;;2.64;65.40;102977.34;5048728;28;20067;-52
2022/03/07 09:15:02;;;;;;;12.85;7.53;;;;;;;2.68;65.07;102975.75;5033041;28;20128;-58
2022/03/07 09:17:27;;;;;;;8.48;6.20;;;;;;;2.80;64.44;102977.88;5036915;28;20025;-55
2022/03/07 09:19:55;;;;;;;13.25;6.97;;;;;;;2.81;63.59;102971.81;5046907;28;20021;-52
2022/03/07 09:22:21;;;;;;;6.90;5.07;;;;;;;2.89;63.50;102963.41;5041010;28;20445;-54
2022/03/07 09:24:46;;;;;;;9.05;5.32;;;;;;;2.98;62.57;102973.25;5043304;28;20048;-58
2022/03/07 09:27:12;;;;;;;7.72;5.20;;;;;;;3.02;61.73;102967.31;5039205;28;20069;-57
2022/03/07 09:29:37;;;;;;;10.23;5.45;;;;;;;2.99;61.41;102956.81;5056681;28;20173;-56
2022/03/07 09:32:05;;;;;;;10.00;5.75;;;;;;;2.92;61.02;102960.03;5057507;28;20564;-53
2022/03/07 09:34:31;;;;;;;7.68;5.55;;;;;;;2.92;61.14;102962.63;5048141;28;20459;-57
2022/03/07 09:36:56;;;;;;;8.05;5.35;;;;;;;3.00;61.76;102953.34;5065630;28;20028;-56
2022/03/07 09:39:21;;;;;;;7.93;6.18;;;;;;;3.09;61.94;102949.25;5066435;28;20658;-55
2022/03/07 09:41:47;;;;;;;8.95;5.35;;;;;;;3.20;61.83;102950.50;5065689;28;20033;-55
2022/03/07 09:44:12;;;;;;;5.72;5.00;;;;;;;3.45;61.76;102952.94;5065582;28;20363;-53
2022/03/07 09:46:38;;;;;;;7.82;5.32;;;;;;;3.52;61.55;102947.06;5064889;28;20025;-60
2022/03/07 09:49:03;;;;;;;9.02;5.88;;;;;;;3.57;59.93;102948.13;5065789;28;20116;-50
2022/03/07 09:51:28;;;;;;;9.75;4.80;;;;;;;3.64;60.21;102936.13;5066147;28;20025;-55
2022/03/07 09:53:54;;;;;;;8.25;5.35;;;;;;;3.70;60.10;102932.84;5056557;28;20239;-56
2022/03/07 09:56:19;;;;;;;9.88;5.85;;;;;;;3.33;58.63;102938.72;5052937;28;20097;-55
2022/03/07 09:58:45;;;;;;;6.43;4.90;;;;;;;3.46;59.12;102931.28;5041425;28;20112;-54
2022/03/07 10:01:19;;;;;;;12.45;5.43;;;;;;;3.69;59.14;102931.03;5042985;28;20033;-54
2022/03/07 10:03:44;;;;;;;7.90;5.60;;;;;;;3.81;59.51;102923.59;5043703;28;20040;-52
2022/03/07 10:06:12;;;;;;;7.30;5.35;;;;;;;3.89;59.21;102926.41;5035283;28;20045;-54
2022/03/07 10:08:37;;;;;;;8.23;5.18;;;;;;;3.95;59.46;102921.38;5049373;28;20502;-53
2022/03/07 10:11:10;;;;;;;7.28;5.82;;;;;;;4.04;58.45;102920.75;5066132;28;20028;-52
2022/03/07 10:13:35;;;;;;;7.25;5.50;;;;;;;3.92;57.89;102906.50;5045252;28;20029;-52
2022/03/07 10:16:02;;;;;;;8.23;5.50;;;;;;;4.16;58.57;102908.00;5049757;28;20479;-54
2022/03/07 10:18:29;;;;;;;7.43;5.22;;;;;;;4.24;58.09;102908.19;5042504;28;20029;-55
2022/03/07 10:20:59;;;;;;;10.40;6.07;;;;;;;4.07;57.54;102902.56;5041728;28;20029;-56
2022/03/07 10:23:28;;;;;;;8.75;5.38;;;;;;;4.02;57.60;102893.72;5032463;28;20025;-53
2022/03/07 10:26:13;;;;;;;8.33;5.30;;;;;;;4.02;57.57;102899.81;5042677;28;20110;-54
2022/03/07 10:28:39;;;;;;;8.07;5.38;;;;;;;4.06;56.65;102903.38;5042780;28;20314;-52
2022/03/07 10:31:15;;;;;;;9.65;5.60;;;;;;;4.12;56.55;102893.09;5045386;28;20036;-55
2022/03/07 10:33:40;;;;;;;9.50;5.70;;;;;;;4.17;56.03;102885.41;5035325;28;20115;-54
2022/03/07 10:36:06;;;;;;;12.90;5.20;;;;;;;4.26;56.03;102885.66;5029372;28;20117;-59
2022/03/07 10:38:32;;;;;;;6.97;5.15;;;;;;;4.42;55.28;102880.81;5039669;28;20445;-53
2022/03/07 10:40:58;;;;;;;8.07;5.22;;;;;;;4.41;54.64;102890.38;5025473;28;20168;-54
2022/03/07 10:43:24;;;;;;;12.95;5.03;;;;;;;4.61;55.58;102886.50;5024193;28;20084;-55
2022/03/07 10:46:00;;;;;;;7.05;4.80;;;;;;;4.85;54.90;102880.06;5027251;28;20033;-55
2022/03/07 10:48:39;;;;;;;5.43;4.72;;;;;;;4.82;54.37;102880.91;5044337;28;20063;-57
2022/03/07 10:51:04;;;;;;;8.85;4.90;;;;;;;4.76;54.81;102871.16;5053096;28;20380;-56
2022/03/07 10:53:39;;;;;;;8.20;4.85;;;;;;;4.57;54.46;102872.47;5054359;28;20020;-57
2022/03/07 10:56:05;;;;;;;5.63;4.50;;;;;;;4.59;54.06;102869.88;5054050;28;20381;-55
2022/03/07 10:58:30;;;;;;;6.80;5.30;;;;;;;4.59;53.96;102867.28;5043762;28;20096;-53
2022/03/07 11:01:00;;;;;;;7.50;4.88;;;;;;;4.52;54.22;102859.28;5041635;28;21057;-53
2022/03/07 11:03:30;;;;;;;7.75;5.25;;;;;;;4.73;54.16;102860.66;5042974;28;20036;-54
2022/03/07 11:05:56;;;;;;;8.65;4.63;;;;;;;4.77;53.77;102852.06;5044361;28;20009;-55
2022/03/07 11:08:22;;;;;;;5.97;4.85;;;;;;;4.66;53.47;102856.13;5043939;28;20395;-57
2022/03/07 11:10:53;;;;;;;6.60;4.68;;;;;;;4.85;53.28;102849.59;5050485;28;20021;-56
2022/03/07 11:13:20;;;;;;;5.22;4.28;;;;;;;5.06;53.04;102854.41;5050558;28;20540;-56
2022/03/07 11:15:46;;;;;;;6.75;4.45;;;;;;;4.89;53.21;102850.56;5051511;28;20055;-56